createdAt,value
2023-05-10T00:00:32.566Z,101870.75
2023-05-10T00:03:14.999Z,101859.34
2023-05-10T00:05:45.096Z,101859.16
2023-05-10T00:08:15.226Z,101830.38
2023-05-10T00:10:44.877Z,101860.81
2023-05-10T00:13:15.184Z,101865.69
2023-05-10T00:15:44.944Z,101862.03
2023-05-10T00:18:16.438Z,101858.34
2023-05-10T00:20:47.275Z,101859.97
2023-05-10T00:23:17.348Z,101860.59
2023-05-10T00:25:47.167Z,101863.41
2023-05-10T00:28:17.309Z,101859.63
2023-05-10T00:30:46.933Z,101865.69
2023-05-10T00:33:19.525Z,101863.13
2023-05-10T00:35:49.454Z,101865.44
2023-05-10T00:38:19.592Z,101868.69
2023-05-10T00:40:49.374Z,101867.69
2023-05-10T00:43:27.457Z,101869.50
2023-05-10T00:45:57.493Z,101866.53
2023-05-10T00:48:29.226Z,101868.09
2023-05-10T00:50:59.052Z,101865.69
2023-05-10T00:53:29.525Z,101858.53
2023-05-10T00:55:59.313Z,101857.63
2023-05-10T00:58:29.964Z,101857.69
2023-05-10T01:01:00.375Z,101857.44
2023-05-10T01:03:32.376Z,101854.72
2023-05-10T01:06:02.245Z,101847.53
2023-05-10T01:08:32.446Z,101848.28
2023-05-10T01:11:02.406Z,101843.59
2023-05-10T01:13:35.562Z,101844.34
2023-05-10T01:16:05.553Z,101846.09
2023-05-10T01:18:38.160Z,101849.69
2023-05-10T01:21:13.897Z,101841.63
2023-05-10T01:24:01.636Z,101839.63
2023-05-10T01:26:57.977Z,101837.09
2023-05-10T01:29:40.990Z,101839.69
2023-05-10T01:32:27.663Z,101834.25
2023-05-10T01:35:01.980Z,101834.97
2023-05-10T01:37:36.579Z,101840.97
2023-05-10T01:40:11.436Z,101835.53
2023-05-10T01:42:43.606Z,101839.84
2023-05-10T01:45:17.302Z,101834.59
2023-05-10T01:47:51.607Z,101840.03
2023-05-10T01:50:23.247Z,101834.56
2023-05-10T01:52:55.807Z,101837.41
2023-05-10T01:55:27.904Z,101842.69
2023-05-10T01:58:01.504Z,101841.81
2023-05-10T02:00:32.578Z,101839.13
2023-05-10T02:03:06.933Z,101835.91
2023-05-10T02:05:38.065Z,101842.69
2023-05-10T02:08:09.082Z,101835.66
2023-05-10T02:10:42.101Z,101838.13
2023-05-10T02:13:12.877Z,101837.06
2023-05-10T02:15:44.093Z,101830.91
2023-05-10T02:18:17.944Z,101834.66
2023-05-10T02:20:49.053Z,101827.84
2023-05-10T02:23:20.089Z,101830.31
2023-05-10T02:25:50.827Z,101833.50
2023-05-10T02:28:20.865Z,101829.25
2023-05-10T02:30:51.653Z,101834.28
2023-05-10T02:33:24.042Z,101776.09
2023-05-10T02:35:56.053Z,101831.22
2023-05-10T02:38:27.195Z,101833.59
2023-05-10T02:40:57.997Z,101828.34
2023-05-10T02:43:28.505Z,101824.66
2023-05-10T02:46:00.012Z,101830.47
2023-05-10T02:48:33.394Z,101833.97
2023-05-10T02:51:07.358Z,101834.84
2023-05-10T02:53:39.106Z,101834.66
2023-05-10T02:56:15.406Z,101835.78
2023-05-10T02:58:45.297Z,101836.47
2023-05-10T03:01:15.611Z,101828.78
2023-05-10T03:03:47.290Z,101831.41
2023-05-10T03:06:18.258Z,101835.47
2023-05-10T03:08:48.220Z,101840.94
2023-05-10T03:11:31.794Z,101833.38
2023-05-10T03:14:14.298Z,101833.38
2023-05-10T03:16:48.155Z,101842.13
2023-05-10T03:19:25.320Z,101843.06
2023-05-10T03:21:56.257Z,101839.41
2023-05-10T03:24:30.000Z,101847.81
2023-05-10T03:27:04.088Z,101841.88
2023-05-10T03:29:35.305Z,101847.13
2023-05-10T03:32:07.442Z,101843.00
2023-05-10T03:34:43.888Z,101843.00
2023-05-10T03:37:14.049Z,101841.50
2023-05-10T03:39:44.412Z,101835.59
2023-05-10T03:42:14.739Z,101835.22
2023-05-10T03:44:44.817Z,101834.50
2023-05-10T03:47:15.106Z,101832.78
2023-05-10T03:49:46.633Z,101836.34
2023-05-10T03:52:17.018Z,101839.13
2023-05-10T03:54:47.019Z,101839.22
2023-05-10T03:57:17.328Z,101832.56
2023-05-10T03:59:47.142Z,101837.50
2023-05-10T04:02:18.166Z,101837.88
2023-05-10T04:04:49.610Z,101833.34
2023-05-10T04:07:20.261Z,101830.03
2023-05-10T04:09:49.939Z,101827.63
2023-05-10T04:12:20.109Z,101836.19
2023-05-10T04:14:49.923Z,101828.09
2023-05-10T04:17:20.119Z,101821.06
2023-05-10T04:19:54.285Z,101826.06
2023-05-10T04:22:24.679Z,101824.75
2023-05-10T04:24:54.711Z,101817.63
2023-05-10T04:27:25.970Z,101829.53
2023-05-10T04:29:55.680Z,101820.94
2023-05-10T04:32:25.755Z,101822.34
2023-05-10T04:34:56.937Z,101821.44
2023-05-10T04:37:27.240Z,101815.00
2023-05-10T04:39:57.254Z,101814.25
2023-05-10T04:42:27.579Z,101820.81
2023-05-10T04:44:57.377Z,101814.88
2023-05-10T04:47:27.546Z,101814.19
2023-05-10T04:49:59.017Z,101814.63
2023-05-10T04:52:29.034Z,101812.56
2023-05-10T04:55:01.725Z,101819.91
2023-05-10T04:57:31.938Z,101817.41
2023-05-10T05:00:03.035Z,101819.56
2023-05-10T05:02:34.345Z,101816.47
2023-05-10T05:05:05.956Z,101818.56
2023-05-10T05:07:36.320Z,101813.78
2023-05-10T05:10:06.475Z,101811.09
2023-05-10T05:12:37.001Z,101804.53
2023-05-10T05:15:09.002Z,101812.47
2023-05-10T05:17:39.845Z,101802.09
2023-05-10T05:20:11.822Z,101800.59
2023-05-10T05:22:41.957Z,101800.56
2023-05-10T05:25:12.905Z,101803.22
2023-05-10T05:27:43.141Z,101798.84
2023-05-10T05:30:14.016Z,101804.31
2023-05-10T05:32:44.169Z,101801.53
2023-05-10T05:35:16.207Z,101804.16
2023-05-10T05:37:46.636Z,101804.41
2023-05-10T05:40:16.657Z,101798.16
2023-05-10T05:42:46.854Z,101799.06
2023-05-10T05:45:17.091Z,101799.94
2023-05-10T05:47:47.702Z,101801.72
2023-05-10T05:50:19.552Z,101792.88
2023-05-10T05:52:49.769Z,101799.94
2023-05-10T05:55:19.775Z,101789.31
2023-05-10T05:57:50.226Z,101791.97
2023-05-10T06:00:20.165Z,101795.41
2023-05-10T06:02:50.612Z,101780.22
2023-05-10T06:05:22.143Z,101788.28
2023-05-10T06:07:52.380Z,101783.84
2023-05-10T06:10:22.215Z,101789.22
2023-05-10T06:12:52.408Z,101794.47
2023-05-10T06:15:22.268Z,101782.91
2023-05-10T06:17:52.410Z,101774.91
2023-05-10T06:20:23.666Z,101781.00
2023-05-10T06:22:53.806Z,101779.91
2023-05-10T06:25:23.569Z,101780.00
2023-05-10T06:27:58.459Z,101778.06
2023-05-10T06:30:30.335Z,101775.41
2023-05-10T06:33:00.881Z,101767.22
2023-05-10T06:35:33.646Z,101775.25
2023-05-10T06:38:03.737Z,101775.97
2023-05-10T06:40:34.169Z,101759.53
2023-05-10T06:43:04.674Z,101767.66
2023-05-10T06:45:34.803Z,101765.81
2023-05-10T06:48:05.513Z,101769.66
2023-05-10T06:50:36.896Z,101769.44
2023-05-10T06:53:07.308Z,101764.34
2023-05-10T06:55:37.156Z,101756.81
2023-05-10T06:58:07.611Z,101759.25
2023-05-10T07:00:40.475Z,101758.72
2023-05-10T07:03:11.072Z,101752.25
2023-05-10T07:05:42.436Z,101752.84
2023-05-10T07:08:13.005Z,101757.22
2023-05-10T07:10:42.968Z,101749.63
2023-05-10T07:13:13.527Z,101752.59
2023-05-10T07:15:43.706Z,101748.25
2023-05-10T07:18:13.947Z,101750.94
2023-05-10T07:20:45.371Z,101761.44
2023-05-10T07:23:15.677Z,101743.47
2023-05-10T07:25:47.208Z,101754.63
2023-05-10T07:28:18.029Z,101744.13
2023-05-10T07:30:47.948Z,101744.97
2023-05-10T07:33:18.736Z,101748.16
2023-05-10T07:35:50.673Z,101739.03
2023-05-10T07:38:21.425Z,101738.22
2023-05-10T07:40:51.284Z,101747.19
2023-05-10T07:43:21.328Z,101739.03
2023-05-10T07:45:51.618Z,101740.34
2023-05-10T07:48:22.854Z,101733.50
2023-05-10T07:50:54.356Z,101735.66
2023-05-10T07:53:24.794Z,101732.19
2023-05-10T07:55:57.112Z,101728.91
2023-05-10T07:58:27.218Z,101734.47
2023-05-10T08:00:57.794Z,101731.06
2023-05-10T08:03:28.001Z,101740.50
2023-05-10T08:05:59.453Z,101739.06
2023-05-10T08:08:29.662Z,101730.09
2023-05-10T08:10:59.384Z,101734.91
2023-05-10T08:13:29.670Z,101732.97
2023-05-10T08:15:59.497Z,101725.47
2023-05-10T08:18:29.711Z,101721.00
2023-05-10T08:21:01.019Z,101733.16
2023-05-10T08:23:31.260Z,101726.31
2023-05-10T08:26:01.471Z,101710.06
2023-05-10T08:28:31.750Z,101712.81
2023-05-10T08:31:01.487Z,101717.38
2023-05-10T08:33:32.137Z,101723.28
2023-05-10T08:36:03.718Z,101722.03
2023-05-10T08:38:33.913Z,101719.34
2023-05-10T08:41:04.749Z,101706.81
2023-05-10T08:43:35.020Z,101711.69
2023-05-10T08:46:07.231Z,101706.66
2023-05-10T08:48:38.065Z,101698.03
2023-05-10T08:51:10.764Z,101707.13
2023-05-10T08:53:41.525Z,101706.28
2023-05-10T08:56:11.395Z,101697.06
2023-05-10T08:58:42.475Z,101706.41
2023-05-10T09:01:12.412Z,101713.53
2023-05-10T09:03:42.815Z,101716.44
2023-05-10T09:06:15.666Z,101715.00
2023-05-10T09:08:46.071Z,101701.47
2023-05-10T09:11:16.105Z,101708.88
2023-05-10T09:13:46.468Z,101701.78
2023-05-10T09:16:21.826Z,101688.25
2023-05-10T09:18:52.696Z,101686.56
2023-05-10T09:21:24.038Z,101691.28
2023-05-10T09:23:55.505Z,101686.78
2023-05-10T09:26:25.777Z,101693.34
2023-05-10T09:28:56.758Z,101695.78
2023-05-10T09:31:27.445Z,101697.97
2023-05-10T09:33:58.094Z,101696.47
2023-05-10T09:36:29.974Z,101690.53
2023-05-10T09:39:00.321Z,101695.72
2023-05-10T09:41:30.776Z,101694.22
2023-05-10T09:44:01.000Z,101673.72
2023-05-10T09:46:38.411Z,101673.22
2023-05-10T09:49:08.650Z,101680.72
2023-05-10T09:51:40.114Z,101681.34
2023-05-10T09:54:14.486Z,101689.72
2023-05-10T09:56:44.870Z,101684.34
2023-05-10T09:59:15.099Z,101686.84
2023-05-10T10:01:45.060Z,101679.13
2023-05-10T10:04:15.312Z,101671.78
2023-05-10T10:06:46.545Z,101671.84
2023-05-10T10:09:17.126Z,101664.97
2023-05-10T10:11:47.234Z,101672.66
2023-05-10T10:14:17.704Z,101656.47
2023-05-10T10:16:59.596Z,101661.06
2023-05-10T10:19:37.371Z,101658.63
2023-05-10T10:22:08.971Z,101655.38
2023-05-10T10:24:39.443Z,101645.47
2023-05-10T10:27:18.090Z,101650.38
2023-05-10T10:29:52.184Z,101640.09
2023-05-10T10:32:27.252Z,101649.03
2023-05-10T10:34:58.311Z,101644.31
2023-05-10T10:37:42.825Z,101649.06
2023-05-10T10:40:27.720Z,101631.06
2023-05-10T10:42:57.642Z,101641.97
2023-05-10T10:45:28.042Z,101637.22
2023-05-10T10:48:15.755Z,101617.13
2023-05-10T10:50:46.452Z,101620.59
2023-05-10T10:53:16.320Z,101624.50
2023-05-10T10:55:51.132Z,101627.59
2023-05-10T10:58:41.708Z,101628.59
2023-05-10T11:01:12.969Z,101618.19
2023-05-10T11:03:43.244Z,101610.56
2023-05-10T11:06:13.715Z,101611.44
2023-05-10T11:08:49.096Z,101607.50
2023-05-10T11:11:21.950Z,101613.91
2023-05-10T11:13:52.228Z,101607.28
2023-05-10T11:16:22.833Z,101607.72
2023-05-10T11:18:56.765Z,101612.38
2023-05-10T11:21:27.372Z,101610.25
2023-05-10T11:23:58.757Z,101604.88
2023-05-10T11:26:33.328Z,101598.91
2023-05-10T11:29:03.570Z,101601.81
2023-05-10T11:31:33.651Z,101608.06
2023-05-10T11:34:04.033Z,101602.69
2023-05-10T11:36:36.291Z,101599.06
2023-05-10T11:39:06.955Z,101609.38
2023-05-10T11:41:39.642Z,101596.13
2023-05-10T11:44:11.912Z,101602.59
2023-05-10T11:46:42.220Z,101599.94
2023-05-10T11:49:13.000Z,101596.59
2023-05-10T11:51:44.816Z,101597.31
2023-05-10T11:54:14.726Z,101602.69
2023-05-10T11:56:46.737Z,101596.72
2023-05-10T11:59:17.174Z,101597.41
2023-05-10T12:01:47.454Z,101580.88
2023-05-10T12:04:17.548Z,101585.31
2023-05-10T12:06:48.026Z,101593.19
2023-05-10T12:09:22.956Z,101595.63
2023-05-10T12:12:05.022Z,101581.13
2023-05-10T12:14:36.978Z,101575.47
2023-05-10T12:17:07.325Z,101565.81
2023-05-10T12:19:40.242Z,101588.09
2023-05-10T12:22:10.765Z,101584.56
2023-05-10T12:24:41.970Z,101574.63
2023-05-10T12:27:14.053Z,101574.88
2023-05-10T12:29:45.843Z,101576.53
2023-05-10T12:32:16.162Z,101570.03
2023-05-10T12:34:49.267Z,101574.13
2023-05-10T12:37:19.360Z,101570.38
2023-05-10T12:39:49.187Z,101577.00
2023-05-10T12:42:20.796Z,101581.53
2023-05-10T12:44:50.618Z,101575.38
2023-05-10T12:47:20.835Z,101579.69
2023-05-10T12:49:51.175Z,101568.97
2023-05-10T12:52:21.350Z,101571.78
2023-05-10T12:54:51.380Z,101575.44
2023-05-10T12:57:22.902Z,101571.06
2023-05-10T12:59:53.107Z,101564.00
2023-05-10T13:02:24.551Z,101569.03
2023-05-10T13:04:54.651Z,101562.84
2023-05-10T13:07:24.987Z,101567.50
2023-05-10T13:09:54.798Z,101555.25
2023-05-10T13:12:26.621Z,101550.59
2023-05-10T13:14:56.478Z,101562.97
2023-05-10T13:17:27.916Z,101559.91
2023-05-10T13:19:57.746Z,101557.28
2023-05-10T13:22:39.345Z,101558.44
2023-05-10T13:25:10.744Z,101552.75
2023-05-10T13:27:42.788Z,101546.75
2023-05-10T13:30:13.302Z,101554.38
2023-05-10T13:32:43.868Z,101560.41
2023-05-10T13:35:13.767Z,101553.44
2023-05-10T13:37:43.937Z,101552.81
2023-05-10T13:40:15.090Z,101546.91
2023-05-10T13:42:47.344Z,101544.84
2023-05-10T13:45:17.597Z,101555.75
2023-05-10T13:47:49.133Z,101548.94
2023-05-10T13:50:19.337Z,101550.53
2023-05-10T13:52:49.701Z,101540.13
2023-05-10T13:55:19.642Z,101540.78
2023-05-10T13:57:51.591Z,101540.84
2023-05-10T14:00:21.700Z,101526.91
2023-05-10T14:02:52.028Z,101532.00
2023-05-10T14:05:25.449Z,101524.41
2023-05-10T14:07:57.041Z,101527.69
2023-05-10T14:10:26.912Z,101523.13
2023-05-10T14:12:58.862Z,101518.81
2023-05-10T14:15:28.612Z,101527.81
2023-05-10T14:17:59.038Z,101506.00
2023-05-10T14:20:29.097Z,101520.94
2023-05-10T14:22:59.400Z,101516.94
2023-05-10T14:25:29.471Z,101511.97
2023-05-10T14:28:01.122Z,101502.66
2023-05-10T14:30:31.030Z,101510.25
2023-05-10T14:33:02.466Z,101497.00
2023-05-10T14:35:33.329Z,101496.81
2023-05-10T14:38:04.858Z,101509.88
2023-05-10T14:40:34.703Z,101509.25
2023-05-10T14:43:06.328Z,101508.59
2023-05-10T14:45:36.119Z,101514.28
2023-05-10T14:48:07.085Z,101505.66
2023-05-10T14:50:38.031Z,101490.75
2023-05-10T14:53:08.524Z,101514.47
2023-05-10T14:55:40.597Z,101490.50
2023-05-10T14:58:12.180Z,101492.50
2023-05-10T15:00:41.868Z,101502.16
2023-05-10T15:03:12.771Z,101497.88
2023-05-10T15:05:42.873Z,101505.09
2023-05-10T15:08:13.732Z,101494.97
2023-05-10T15:10:43.424Z,101498.41
2023-05-10T15:13:15.442Z,101489.63
2023-05-10T15:15:45.292Z,101496.66
2023-05-10T15:18:15.517Z,101492.72
2023-05-10T15:20:45.307Z,101506.09
2023-05-10T15:23:15.512Z,101490.16
2023-05-10T15:25:45.578Z,101487.91
2023-05-10T15:28:17.211Z,101480.38
2023-05-10T15:30:47.115Z,101484.19
2023-05-10T15:33:17.863Z,101485.66
2023-05-10T15:35:48.203Z,101493.75
2023-05-10T15:38:19.638Z,101495.16
2023-05-10T15:40:49.344Z,101497.88
2023-05-10T15:43:21.000Z,101488.72
2023-05-10T15:45:50.807Z,101475.19
2023-05-10T15:48:20.866Z,101488.22
2023-05-10T15:50:50.520Z,101495.03
2023-05-10T15:53:20.760Z,101486.69
2023-05-10T15:55:50.601Z,101488.69
2023-05-10T15:58:22.350Z,101487.53
2023-05-10T16:00:52.086Z,101498.91
2023-05-10T16:03:22.190Z,101492.22
2023-05-10T16:05:52.129Z,101496.50
2023-05-10T16:08:22.242Z,101494.38
2023-05-10T16:10:52.750Z,101486.09
2023-05-10T16:13:24.378Z,101501.53
2023-05-10T16:15:54.216Z,101498.72
2023-05-10T16:18:24.362Z,101503.41
2023-05-10T16:20:54.712Z,101498.81
2023-05-10T16:23:24.896Z,101487.41
2023-05-10T16:25:55.282Z,101498.31
2023-05-10T16:28:30.208Z,101505.38
2023-05-10T16:34:27.688Z,101501.94
2023-05-10T16:36:57.918Z,101507.56
2023-05-10T16:39:49.758Z,101506.81
2023-05-10T16:46:29.683Z,101507.63
2023-05-10T16:49:00.070Z,101517.66
2023-05-10T16:51:30.692Z,101519.66
2023-05-10T16:54:00.616Z,101506.31
2023-05-10T16:56:30.732Z,101515.41
2023-05-10T16:59:00.906Z,101512.91
2023-05-10T17:02:06.580Z,101509.75
2023-05-10T17:04:36.889Z,101522.06
2023-05-10T17:07:10.820Z,101515.06
2023-05-10T17:10:05.448Z,101523.16
2023-05-10T17:17:10.507Z,101528.78
2023-05-10T17:20:06.175Z,101528.78
2023-05-10T17:22:45.470Z,101535.72
2023-05-10T17:25:47.911Z,101539.28
2023-05-10T17:29:09.859Z,101540.47
2023-05-10T17:35:12.663Z,101551.00
2023-05-10T17:37:45.651Z,101547.56
2023-05-10T17:44:11.695Z,101554.41
2023-05-10T17:46:45.581Z,101553.59
2023-05-10T17:49:36.606Z,101556.63
2023-05-10T17:52:56.165Z,101556.81
2023-05-10T18:00:06.307Z,101565.72
2023-05-10T18:03:06.693Z,101569.56
2023-05-10T18:06:18.935Z,101569.78
2023-05-10T18:09:14.315Z,101571.13
2023-05-10T18:11:53.895Z,101573.22
2023-05-10T18:18:05.413Z,101587.28
2023-05-10T18:20:39.037Z,101591.97
2023-05-10T18:23:29.657Z,101586.75
2023-05-10T18:26:16.235Z,101595.09
2023-05-10T18:32:03.249Z,101599.25
2023-05-10T18:35:47.865Z,101608.34
2023-05-10T18:38:29.940Z,101624.16
2023-05-10T18:44:32.895Z,101629.00
2023-05-10T18:47:09.946Z,101594.84
2023-05-10T18:53:40.235Z,101634.84
2023-05-10T19:02:37.619Z,101650.66
2023-05-10T19:05:23.145Z,101645.47
2023-05-10T19:08:02.619Z,101656.06
2023-05-10T19:10:34.420Z,101648.88
2023-05-10T19:13:07.823Z,101650.78
2023-05-10T19:19:24.670Z,101655.44
2023-05-10T19:22:31.588Z,101610.34
2023-05-10T19:25:08.282Z,101659.94
2023-05-10T19:28:49.254Z,101660.84
2023-05-10T19:31:34.101Z,101662.59
2023-05-10T19:34:48.974Z,101665.22
2023-05-10T19:40:58.438Z,101667.00
2023-05-10T19:43:47.365Z,101675.81
2023-05-10T19:50:04.246Z,101674.91
2023-05-10T19:53:11.727Z,101681.09
2023-05-10T19:57:12.090Z,101687.22
2023-05-10T19:59:46.333Z,101687.09
2023-05-10T20:02:59.013Z,101687.94
2023-05-10T20:05:47.995Z,101694.91
2023-05-10T20:08:53.388Z,101690.47
2023-05-10T20:11:48.621Z,101696.59
2023-05-10T20:15:10.487Z,101705.38
2023-05-10T20:18:34.501Z,101705.22
2023-05-10T20:21:49.001Z,101709.59
2023-05-10T20:27:18.378Z,101713.00
2023-05-10T20:33:55.381Z,101708.34
2023-05-10T20:37:12.218Z,101711.84
2023-05-10T20:39:58.234Z,101708.97
2023-05-10T20:42:31.985Z,101706.22
2023-05-10T20:46:00.505Z,101715.84
2023-05-10T20:53:13.420Z,101720.03
2023-05-10T20:56:23.654Z,101721.81
2023-05-10T20:58:59.556Z,101723.66
2023-05-10T21:01:59.597Z,101725.34
2023-05-10T21:04:46.232Z,101729.41
2023-05-10T21:07:21.674Z,101737.16
2023-05-10T21:10:47.288Z,101737.16
2023-05-10T21:14:24.788Z,101739.63
2023-05-10T21:17:18.130Z,101743.13
2023-05-10T21:20:04.693Z,101739.56
2023-05-10T21:22:58.648Z,101744.72
2023-05-10T21:25:34.863Z,101749.03
2023-05-10T21:28:58.910Z,101751.66
2023-05-10T21:35:34.370Z,101760.25
2023-05-10T21:38:04.517Z,101755.75
2023-05-10T21:40:34.196Z,101761.00
2023-05-10T21:43:04.470Z,101758.31
2023-05-10T21:45:34.346Z,101764.31
2023-05-10T21:48:04.736Z,101765.94
2023-05-10T21:50:36.066Z,101764.13
2023-05-10T21:53:06.322Z,101773.03
2023-05-10T21:55:36.222Z,101766.03
2023-05-10T21:58:06.423Z,101766.97
2023-05-10T22:00:36.206Z,101772.34
2023-05-10T22:03:06.445Z,101771.59
2023-05-10T22:05:37.685Z,101777.78
2023-05-10T22:08:08.170Z,101776.00
2023-05-10T22:10:37.894Z,101770.50
2023-05-10T22:13:08.197Z,101781.78
2023-05-10T22:15:37.862Z,101778.16
2023-05-10T22:18:08.456Z,101782.41
2023-05-10T22:20:39.827Z,101779.53
2023-05-10T22:23:11.077Z,101783.69
2023-05-10T22:25:40.933Z,101773.91
2023-05-10T22:28:11.199Z,101781.69
2023-05-10T22:30:41.035Z,101782.16
2023-05-10T22:33:11.060Z,101785.66
2023-05-10T22:35:42.302Z,101790.84
2023-05-10T22:38:13.092Z,101795.22
2023-05-10T22:40:43.296Z,101792.41
2023-05-10T22:43:14.483Z,101787.06
2023-05-10T22:45:44.713Z,101792.28
2023-05-10T22:48:16.222Z,101795.66
2023-05-10T22:50:47.491Z,101798.94
2023-05-10T22:53:17.736Z,101808.25
2023-05-10T22:55:47.721Z,101811.56
2023-05-10T22:58:17.875Z,101803.75
2023-05-10T23:00:47.703Z,101808.16
2023-05-10T23:03:17.869Z,101813.53
2023-05-10T23:05:49.736Z,101808.38
2023-05-10T23:08:19.863Z,101808.16
2023-05-10T23:10:49.958Z,101812.50
2023-05-10T23:13:21.340Z,101812.47
2023-05-10T23:15:51.202Z,101814.19
2023-05-10T23:18:21.452Z,101815.13
2023-05-10T23:20:52.636Z,101806.25
2023-05-10T23:23:23.198Z,101816.63
2023-05-10T23:25:54.081Z,101818.25
2023-05-10T23:28:24.098Z,101819.03
2023-05-10T23:30:56.144Z,101819.06
2023-05-10T23:33:26.909Z,101815.38
2023-05-10T23:35:57.965Z,101809.09
2023-05-10T23:38:28.116Z,101818.81
2023-05-10T23:40:58.011Z,101814.53
2023-05-10T23:43:28.116Z,101827.56
2023-05-10T23:45:58.749Z,101821.31
2023-05-10T23:48:28.930Z,101821.22
2023-05-10T23:51:00.132Z,101822.78
2023-05-10T23:53:30.318Z,101824.03
2023-05-10T23:56:00.070Z,101823.09
2023-05-10T23:58:30.209Z,101824.66
